Terminal Aerodrome Forecast
Issued by NWS Charleston, SC

Home | Current Version | Previous Version | Text Only | Print | Product List | Glossary On
Versions: 1 2 3 4 5 6 7 8 9 10 11 12 13 14 15 16 17 18 19 20
223
FTUS42 KCHS 212325
TAFSAV
TAF
KSAV 212325Z 2200/2224 16007KT P6SM SCT030 BKN150
     FM220800 VRB03KT P6SM MIFG SCT010 BKN120
     FM221300 15009KT P6SM VCSH SCT020 BKN040=

USA.gov is the U.S. government's official web portal to all federal, state and local government web resources and services.